Time;durP1;ratioP1;P1;durP2;ratioP2;P2;SDS_P1;SDS_P2;PMS_P1;PMS_P2;Temp;Humidity;BMP_temperature;BMP_pressure;BME280_temperature;BME280_humidity;BME280_pressure;Samples;Min_cycle;Max_cycle;Signal;HPM_P1;HPM_P2
2023/03/16 00:00:23;;;;;;;19.10;3.15;;;7.90;99.90;;;;;;4988629;28;20505;-78
2023/03/16 00:02:49;;;;;;;11.18;3.20;;;7.90;99.90;;;;;;4983848;28;20125;-79
2023/03/16 00:05:15;;;;;;;10.50;3.10;;;7.90;99.90;;;;;;5005820;28;20061;-78
2023/03/16 00:07:41;;;;;;;13.38;2.90;;;7.90;99.90;;;;;;4998108;28;20112;-78
2023/03/16 00:10:08;;;;;;;17.58;3.25;;;7.90;99.90;;;;;;4988536;28;20026;-78
2023/03/16 00:12:34;;;;;;;19.48;3.42;;;8.00;99.90;;;;;;4988403;28;20022;-77
2023/03/16 00:15:01;;;;;;;13.02;2.97;;;8.00;99.90;;;;;;4991389;28;20125;-77
2023/03/16 00:17:26;;;;;;;15.00;3.10;;;8.00;99.90;;;;;;4991432;28;20044;-78
2023/03/16 00:19:54;;;;;;;15.00;2.67;;;8.00;99.90;;;;;;4995597;28;20106;-79
2023/03/16 00:22:21;;;;;;;13.73;2.80;;;8.00;99.90;;;;;;4984257;28;20046;-79
2023/03/16 00:24:47;;;;;;;5.35;2.28;;;8.00;99.90;;;;;;5000430;28;20113;-80
2023/03/16 00:27:14;;;;;;;18.60;3.10;;;8.00;99.90;;;;;;5004225;28;20468;-79
2023/03/16 00:29:54;;;;;;;14.38;2.80;;;8.00;99.90;;;;;;5005091;28;20022;-79
2023/03/16 00:32:30;;;;;;;14.90;2.90;;;8.10;99.90;;;;;;4993154;28;20561;-79
2023/03/16 00:34:57;;;;;;;14.85;3.28;;;8.10;99.90;;;;;;5002509;28;20026;-80
2023/03/16 00:37:24;;;;;;;13.32;2.72;;;8.10;99.90;;;;;;4986507;28;20812;-79
2023/03/16 00:39:51;;;;;;;16.63;3.08;;;8.10;99.90;;;;;;4985826;28;20131;-79
2023/03/16 00:42:18;;;;;;;15.38;2.85;;;8.10;99.90;;;;;;4982147;28;20033;-79
2023/03/16 00:44:44;;;;;;;19.63;3.20;;;8.10;99.90;;;;;;4989026;28;20044;-79
2023/03/16 00:47:14;;;;;;;23.60;2.90;;;8.20;99.90;;;;;;4986220;28;20389;-79
2023/03/16 00:49:41;;;;;;;16.92;2.78;;;8.20;99.90;;;;;;5002896;28;20057;-79
2023/03/16 00:52:08;;;;;;;16.05;2.55;;;8.20;99.90;;;;;;4985887;28;20573;-78
2023/03/16 00:54:34;;;;;;;17.00;2.80;;;8.20;99.90;;;;;;4985687;28;20026;-79
2023/03/16 00:57:00;;;;;;;18.08;3.25;;;8.40;99.90;;;;;;4999602;28;20104;-79
2023/03/16 00:59:26;;;;;;;11.82;3.35;;;8.30;99.90;;;;;;5000596;28;20036;-78
2023/03/16 01:01:53;;;;;;;11.43;2.97;;;8.40;99.90;;;;;;5003259;28;20021;-78
2023/03/16 01:04:19;;;;;;;15.50;2.53;;;8.40;99.90;;;;;;5002967;28;20084;-78
2023/03/16 01:06:45;;;;;;;19.15;3.30;;;8.50;99.90;;;;;;5003244;28;20026;-77
2023/03/16 01:09:13;;;;;;;23.63;3.55;;;8.40;99.90;;;;;;5001027;28;20397;-79
2023/03/16 01:11:38;;;;;;;13.90;2.97;;;8.40;99.90;;;;;;4984846;28;20038;-79
2023/03/16 01:14:04;;;;;;;17.42;3.03;;;8.40;99.90;;;;;;4997428;28;20034;-78
2023/03/16 01:16:32;;;;;;;17.60;3.33;;;8.40;99.90;;;;;;5001459;28;20089;-79
2023/03/16 01:18:58;;;;;;;20.40;3.83;;;8.30;99.90;;;;;;5000359;28;20117;-80
2023/03/16 01:21:23;;;;;;;17.10;3.30;;;8.40;99.90;;;;;;5001190;28;20101;-79
2023/03/16 01:23:49;;;;;;;16.65;3.88;;;8.30;99.90;;;;;;4994148;28;20052;-79
2023/03/16 01:26:16;;;;;;;17.33;3.53;;;8.30;99.90;;;;;;5001636;28;20025;-78
2023/03/16 01:28:43;;;;;;;20.25;3.72;;;8.30;99.90;;;;;;5001967;28;20030;-78
2023/03/16 01:31:11;;;;;;;26.08;4.47;;;8.30;99.90;;;;;;5003787;28;20434;-79
2023/03/16 01:33:37;;;;;;;19.38;3.85;;;8.30;99.90;;;;;;4996122;28;20033;-79
2023/03/16 01:36:12;;;;;;;15.73;3.42;;;8.30;99.90;;;;;;5003254;28;20182;-77
2023/03/16 01:38:38;;;;;;;19.42;3.28;;;8.40;99.90;;;;;;4990892;28;20038;-78
2023/03/16 01:41:05;;;;;;;15.68;3.60;;;8.40;99.90;;;;;;4993070;28;20371;-77
2023/03/16 01:43:33;;;;;;;24.25;4.25;;;8.40;99.90;;;;;;5002721;28;20115;-79
2023/03/16 01:46:04;;;;;;;14.95;3.80;;;8.40;99.90;;;;;;4984487;28;20022;-78
2023/03/16 01:48:36;;;;;;;19.60;3.83;;;8.40;99.90;;;;;;5001982;28;20049;-79
2023/03/16 01:51:19;;;;;;;15.68;3.28;;;8.50;99.90;;;;;;4992939;28;20049;-78
2023/03/16 01:53:48;;;;;;;20.67;3.70;;;8.50;99.90;;;;;;5002368;28;20038;-77
2023/03/16 01:56:19;;;;;;;19.58;3.95;;;8.50;99.90;;;;;;5002225;28;20030;-78
2023/03/16 01:58:45;;;;;;;17.65;2.90;;;8.50;99.90;;;;;;4985475;28;20065;-78
2023/03/16 02:01:12;;;;;;;20.23;3.65;;;8.50;99.90;;;;;;5001781;28;20022;-77
2023/03/16 02:03:40;;;;;;;22.60;3.80;;;8.50;99.90;;;;;;4993690;28;20412;-77
2023/03/16 02:06:11;;;;;;;18.38;2.78;;;8.50;99.90;;;;;;4974652;28;20089;-78
2023/03/16 02:08:38;;;;;;;14.88;3.97;;;8.50;99.90;;;;;;4994586;28;20133;-78
2023/03/16 02:11:05;;;;;;;20.83;4.13;;;8.50;99.90;;;;;;4972949;28;20067;-78
2023/03/16 02:13:35;;;;;;;24.65;3.67;;;8.50;99.90;;;;;;5006360;28;20021;-78
2023/03/16 02:16:05;;;;;;;18.02;3.70;;;8.60;99.90;;;;;;5005077;28;20109;-78
2023/03/16 02:18:31;;;;;;;20.23;3.83;;;8.60;99.90;;;;;;4985002;28;20034;-78
2023/03/16 02:21:15;;;;;;;19.02;3.45;;;8.60;99.90;;;;;;4996617;28;20030;-79
2023/03/16 02:23:43;;;;;;;16.10;3.78;;;8.70;99.90;;;;;;4978072;28;20133;-78
2023/03/16 02:26:14;;;;;;;24.63;5.45;;;8.60;99.90;;;;;;4994757;28;20142;-78
2023/03/16 02:29:00;;;;;;;22.77;3.97;;;8.70;99.90;;;;;;5004253;28;20029;-77
2023/03/16 02:31:26;;;;;;;14.52;3.90;;;8.60;99.90;;;;;;5005087;28;20037;-78
2023/03/16 02:33:52;;;;;;;23.70;4.28;;;8.60;99.90;;;;;;4999663;28;20194;-78
2023/03/16 02:36:19;;;;;;;18.67;4.32;;;8.60;99.90;;;;;;5004740;28;20060;-77
2023/03/16 02:38:45;;;;;;;10.70;4.20;;;8.60;99.90;;;;;;5003383;28;20045;-77
2023/03/16 02:41:14;;;;;;;15.07;4.10;;;8.60;99.90;;;;;;4999913;28;20034;-78
2023/03/16 02:43:46;;;;;;;23.15;4.80;;;8.60;99.90;;;;;;4985757;28;20686;-78
2023/03/16 02:46:13;;;;;;;18.35;3.80;;;8.70;99.90;;;;;;5003056;28;20105;-78
2023/03/16 02:48:50;;;;;;;21.73;4.20;;;8.70;99.90;;;;;;4983574;28;20030;-77
2023/03/16 02:51:16;;;;;;;25.80;4.60;;;8.70;99.90;;;;;;4999425;28;20037;-77
2023/03/16 02:53:42;;;;;;;17.60;4.10;;;8.70;99.90;;;;;;5004012;28;20037;-78
2023/03/16 02:56:07;;;;;;;25.35;4.07;;;8.70;99.90;;;;;;5004399;28;20030;-78
2023/03/16 02:58:33;;;;;;;14.32;4.60;;;8.80;99.90;;;;;;5002861;28;20081;-77
2023/03/16 03:00:59;;;;;;;18.42;3.72;;;8.80;99.90;;;;;;4993938;28;20084;-77
2023/03/16 03:03:24;;;;;;;16.63;3.95;;;8.80;99.90;;;;;;4989952;28;20441;-77
2023/03/16 03:05:50;;;;;;;20.50;4.00;;;8.80;99.90;;;;;;5001514;28;20528;-77
2023/03/16 03:08:16;;;;;;;20.33;4.15;;;8.90;99.90;;;;;;5003224;28;20487;-78
2023/03/16 03:10:41;;;;;;;20.30;4.10;;;8.90;99.90;;;;;;5003524;28;20044;-76
2023/03/16 03:13:07;;;;;;;15.50;4.13;;;8.90;99.90;;;;;;5003721;28;20033;-77
2023/03/16 03:15:33;;;;;;;16.00;4.30;;;9.00;99.90;;;;;;4995242;28;20406;-77
2023/03/16 03:17:59;;;;;;;17.10;4.70;;;8.90;99.90;;;;;;4998059;28;20046;-79
2023/03/16 03:20:25;;;;;;;16.95;4.75;;;9.00;99.90;;;;;;5003330;28;20048;-77
2023/03/16 03:22:54;;;;;;;13.43;4.00;;;9.00;99.90;;;;;;5002179;28;20049;-77
2023/03/16 03:25:21;;;;;;;13.07;4.10;;;9.00;99.90;;;;;;5002157;28;20032;-77
2023/03/16 03:27:48;;;;;;;13.77;4.97;;;9.00;99.90;;;;;;5003954;28;20466;-77
2023/03/16 03:30:16;;;;;;;17.10;4.03;;;9.00;99.90;;;;;;5003830;28;20404;-76
2023/03/16 03:32:43;;;;;;;15.65;4.40;;;9.00;99.90;;;;;;5000980;28;20029;-78
2023/03/16 03:35:11;;;;;;;11.93;4.43;;;9.00;99.90;;;;;;5000649;28;20040;-77
2023/03/16 03:37:37;;;;;;;14.73;3.95;;;9.00;99.90;;;;;;4998233;28;20393;-77
2023/03/16 03:40:04;;;;;;;15.77;5.05;;;9.00;99.90;;;;;;4995783;28;20026;-78
2023/03/16 03:42:30;;;;;;;14.77;4.32;;;8.90;99.90;;;;;;4984765;28;20499;-79
2023/03/16 03:44:55;;;;;;;14.02;4.05;;;8.90;99.90;;;;;;5003558;28;20022;-77
2023/03/16 03:47:21;;;;;;;11.20;4.25;;;8.90;99.90;;;;;;5002514;28;20036;-78
2023/03/16 03:49:47;;;;;;;19.90;4.85;;;8.90;99.90;;;;;;4985648;28;20613;-77
2023/03/16 03:52:12;;;;;;;12.30;4.40;;;8.90;99.90;;;;;;5003331;28;20105;-77
2023/03/16 03:54:38;;;;;;;15.35;5.75;;;8.90;99.90;;;;;;4986447;28;20117;-78
2023/03/16 03:57:04;;;;;;;16.75;5.28;;;8.90;99.90;;;;;;5003806;28;20190;-79
2023/03/16 03:59:30;;;;;;;23.08;6.05;;;8.90;99.90;;;;;;5002456;28;20042;-78
2023/03/16 04:01:56;;;;;;;22.77;5.60;;;8.90;99.90;;;;;;5002352;28;20049;-78
2023/03/16 04:04:21;;;;;;;21.90;5.90;;;8.80;99.90;;;;;;4985259;28;20026;-78
2023/03/16 04:06:47;;;;;;;17.83;6.03;;;8.80;99.90;;;;;;4994166;28;20052;-78
2023/03/16 04:09:12;;;;;;;20.45;4.80;;;8.90;99.90;;;;;;4967500;28;20034;-79
2023/03/16 04:11:38;;;;;;;26.65;5.97;;;8.80;99.90;;;;;;4980414;28;20038;-78
2023/03/16 04:14:04;;;;;;;23.85;5.50;;;8.80;99.90;;;;;;4990601;28;20030;-78
2023/03/16 04:16:30;;;;;;;23.75;5.75;;;8.90;99.90;;;;;;5004274;28;20100;-77
2023/03/16 04:18:56;;;;;;;21.95;5.85;;;8.80;99.90;;;;;;5002104;28;20125;-78
2023/03/16 04:21:23;;;;;;;20.83;5.93;;;8.80;99.90;;;;;;5003327;28;20037;-78
2023/03/16 04:23:53;;;;;;;13.15;5.07;;;8.80;99.90;;;;;;4984721;28;20076;-77
2023/03/16 04:26:24;;;;;;;16.08;5.50;;;8.80;99.90;;;;;;5001300;28;20112;-77
2023/03/16 04:28:51;;;;;;;20.48;5.13;;;8.80;99.90;;;;;;4984027;28;20520;-78
2023/03/16 04:31:17;;;;;;;15.50;4.85;;;8.80;99.90;;;;;;5002986;28;20041;-78
2023/03/16 04:33:43;;;;;;;18.20;4.72;;;8.80;99.90;;;;;;5003366;28;20034;-78
2023/03/16 04:36:08;;;;;;;22.30;4.30;;;8.80;99.90;;;;;;5001465;28;20436;-78
2023/03/16 04:38:34;;;;;;;16.92;4.30;;;8.90;99.90;;;;;;4983146;28;20081;-78
2023/03/16 04:41:02;;;;;;;19.55;4.32;;;8.90;99.90;;;;;;5000440;28;20504;-78
2023/03/16 04:43:28;;;;;;;15.52;4.40;;;8.90;99.90;;;;;;5002936;28;20041;-77
2023/03/16 04:45:53;;;;;;;20.10;5.10;;;9.00;99.90;;;;;;5003221;28;20092;-78
2023/03/16 04:48:19;;;;;;;21.50;4.93;;;9.00;99.90;;;;;;5001349;28;20057;-78
2023/03/16 04:50:47;;;;;;;18.33;4.68;;;9.00;99.90;;;;;;4998413;28;20037;-78
2023/03/16 04:53:12;;;;;;;17.55;4.25;;;9.00;99.90;;;;;;4985220;28;20387;-79
2023/03/16 04:55:38;;;;;;;19.58;4.25;;;9.00;99.90;;;;;;4982057;28;20040;-79
2023/03/16 04:58:04;;;;;;;19.08;4.68;;;9.00;99.90;;;;;;5002097;28;20365;-78
2023/03/16 05:00:30;;;;;;;16.08;4.10;;;9.00;99.90;;;;;;4985332;28;20034;-77
2023/03/16 05:02:56;;;;;;;19.67;4.35;;;9.00;99.90;;;;;;4993938;28;20042;-77
2023/03/16 05:05:22;;;;;;;19.35;3.97;;;9.00;99.90;;;;;;4986838;28;20030;-78
2023/03/16 05:07:48;;;;;;;14.20;4.75;;;9.00;99.90;;;;;;4998153;28;20041;-77
2023/03/16 05:10:17;;;;;;;18.35;4.43;;;9.10;99.90;;;;;;5000448;28;21554;-77
2023/03/16 05:12:43;;;;;;;15.85;5.20;;;9.00;99.90;;;;;;5002018;28;20033;-77
2023/03/16 05:15:10;;;;;;;18.83;5.10;;;9.00;99.90;;;;;;4989486;28;20130;-77
2023/03/16 05:17:36;;;;;;;26.60;5.70;;;9.00;99.90;;;;;;5002663;28;20231;-78
2023/03/16 05:20:06;;;;;;;18.30;4.97;;;9.00;99.90;;;;;;4999520;28;20113;-78
2023/03/16 05:22:33;;;;;;;18.48;5.50;;;9.00;99.90;;;;;;5003394;28;20564;-78
2023/03/16 05:25:02;;;;;;;16.60;5.72;;;9.00;99.90;;;;;;5002705;28;20503;-78
2023/03/16 05:27:28;;;;;;;15.30;4.82;;;8.90;99.90;;;;;;5002444;28;20038;-78
2023/03/16 05:29:54;;;;;;;14.48;5.47;;;8.90;99.90;;;;;;5002062;28;20121;-77
2023/03/16 05:32:20;;;;;;;19.73;4.68;;;8.90;99.90;;;;;;5000223;28;20116;-77
2023/03/16 05:34:45;;;;;;;18.42;4.07;;;8.90;99.90;;;;;;5001710;28;20140;-78
2023/03/16 05:37:11;;;;;;;11.80;3.53;;;8.90;99.90;;;;;;4992260;28;20604;-78
2023/03/16 05:39:37;;;;;;;10.10;3.50;;;8.90;99.90;;;;;;4992563;28;20097;-79
2023/03/16 05:42:04;;;;;;;13.88;3.38;;;8.90;99.90;;;;;;5000549;28;20029;-77
2023/03/16 05:44:30;;;;;;;7.30;3.40;;;9.00;99.90;;;;;;5002963;28;20061;-78
2023/03/16 05:46:56;;;;;;;11.80;3.60;;;9.00;99.90;;;;;;5003721;28;20026;-77
2023/03/16 05:49:22;;;;;;;13.13;3.28;;;9.00;99.90;;;;;;4988021;28;20038;-78
2023/03/16 05:51:49;;;;;;;13.38;4.15;;;9.00;99.90;;;;;;5005398;28;20120;-78
2023/03/16 05:54:15;;;;;;;12.93;3.70;;;9.00;99.90;;;;;;4995575;28;20101;-78
2023/03/16 05:56:40;;;;;;;14.20;3.13;;;9.00;99.90;;;;;;4987906;28;20038;-78
2023/03/16 05:59:06;;;;;;;12.13;3.40;;;8.90;99.90;;;;;;4987520;28;20041;-77
2023/03/16 06:01:33;;;;;;;13.05;3.60;;;8.90;99.90;;;;;;4988129;28;20061;-78
2023/03/16 06:03:59;;;;;;;9.35;2.65;;;8.90;99.90;;;;;;5006557;28;20041;-78
2023/03/16 06:06:24;;;;;;;10.85;2.83;;;8.90;99.90;;;;;;5003734;28;20034;-78
2023/03/16 06:08:50;;;;;;;9.52;3.28;;;8.90;99.90;;;;;;5001049;28;20034;-78
2023/03/16 06:11:16;;;;;;;12.38;2.72;;;8.90;99.90;;;;;;5004299;28;20034;-79
2023/03/16 06:13:42;;;;;;;12.18;2.30;;;9.00;99.90;;;;;;5006529;28;20022;-78
2023/03/16 06:16:10;;;;;;;10.55;3.47;;;9.00;99.90;;;;;;4987898;28;20045;-78
2023/03/16 06:18:36;;;;;;;6.05;1.80;;;9.00;99.90;;;;;;5005801;28;20489;-78
2023/03/16 06:21:02;;;;;;;8.57;2.13;;;9.10;99.90;;;;;;4990217;28;20120;-77
2023/03/16 06:23:28;;;;;;;9.43;1.90;;;9.00;99.90;;;;;;5004280;28;20054;-79
2023/03/16 06:25:54;;;;;;;5.32;1.38;;;9.10;99.90;;;;;;5003207;28;20064;-77
2023/03/16 06:28:21;;;;;;;4.38;1.05;;;9.10;99.90;;;;;;5003740;28;20045;-78
2023/03/16 06:30:46;;;;;;;2.70;0.90;;;9.10;99.90;;;;;;5004677;28;20040;-77
2023/03/16 06:33:12;;;;;;;2.90;0.90;;;9.10;99.90;;;;;;4988948;28;20070;-78
2023/03/16 06:35:38;;;;;;;1.98;0.77;;;9.20;99.90;;;;;;5002509;28;20030;-77
2023/03/16 06:38:04;;;;;;;2.22;1.00;;;9.20;99.90;;;;;;4986723;28;20045;-78
2023/03/16 06:40:29;;;;;;;2.60;1.23;;;9.20;99.90;;;;;;5002538;28;20593;-78
2023/03/16 06:42:55;;;;;;;2.78;1.30;;;9.30;99.90;;;;;;5004022;28;20095;-78
2023/03/16 06:45:21;;;;;;;3.67;1.63;;;9.20;99.90;;;;;;4992355;28;20053;-78
2023/03/16 06:47:47;;;;;;;3.58;2.10;;;9.20;99.90;;;;;;5005169;28;20038;-77
2023/03/16 06:50:13;;;;;;;6.95;2.88;;;9.20;99.90;;;;;;4986984;28;20037;-77
2023/03/16 06:52:40;;;;;;;14.35;3.65;;;9.10;99.90;;;;;;5004931;28;20033;-78
2023/03/16 06:55:07;;;;;;;12.40;3.45;;;9.20;99.90;;;;;;4983550;28;20481;-79
2023/03/16 06:57:33;;;;;;;13.68;3.42;;;9.10;99.90;;;;;;4995154;28;20108;-78
2023/03/16 06:59:58;;;;;;;8.85;2.42;;;9.10;99.90;;;;;;4981201;28;20841;-78
2023/03/16 07:02:24;;;;;;;6.90;2.40;;;9.20;99.90;;;;;;4999703;28;20109;-78
2023/03/16 07:04:50;;;;;;;6.70;2.92;;;9.20;99.90;;;;;;4999522;28;20572;-79
2023/03/16 07:07:16;;;;;;;7.40;2.10;;;9.20;99.90;;;;;;5005754;28;20040;-79
2023/03/16 07:09:42;;;;;;;8.00;1.92;;;9.30;99.90;;;;;;4986048;28;20347;-79
2023/03/16 07:12:08;;;;;;;5.90;1.77;;;9.20;99.90;;;;;;5000492;28;20033;-78
2023/03/16 07:14:34;;;;;;;7.53;1.90;;;9.30;99.90;;;;;;4985759;28;20445;-79
2023/03/16 07:17:00;;;;;;;7.72;1.88;;;9.30;99.90;;;;;;5002696;28;20117;-79
2023/03/16 07:19:26;;;;;;;8.73;1.90;;;9.30;99.90;;;;;;5002027;28;20457;-78
2023/03/16 07:21:52;;;;;;;8.65;1.98;;;9.40;99.90;;;;;;4992687;28;20061;-79
2023/03/16 07:24:18;;;;;;;7.50;2.13;;;9.40;99.90;;;;;;4982315;28;20121;-79
2023/03/16 07:26:45;;;;;;;9.98;2.22;;;9.40;99.90;;;;;;4968558;28;20109;-79
2023/03/16 07:29:11;;;;;;;15.70;2.28;;;9.40;99.90;;;;;;4976901;28;20025;-78
2023/03/16 07:31:37;;;;;;;17.92;2.75;;;9.40;99.90;;;;;;4978183;28;20505;-79
2023/03/16 07:34:03;;;;;;;13.30;2.42;;;9.40;99.90;;;;;;4985584;28;20100;-79
2023/03/16 07:36:28;;;;;;;8.25;2.03;;;9.40;99.90;;;;;;4981098;28;20038;-78
2023/03/16 07:38:54;;;;;;;14.85;2.05;;;9.40;99.90;;;;;;4984821;28;20481;-78
2023/03/16 07:41:20;;;;;;;11.95;2.33;;;9.50;99.90;;;;;;4967458;28;20430;-78
2023/03/16 07:43:47;;;;;;;17.10;2.65;;;9.50;99.90;;;;;;4981984;28;20457;-79
2023/03/16 07:46:12;;;;;;;15.07;2.72;;;9.60;99.90;;;;;;4984393;28;20116;-77
2023/03/16 07:48:39;;;;;;;12.23;2.63;;;9.60;99.90;;;;;;4984141;28;20439;-78
2023/03/16 07:51:05;;;;;;;13.63;1.95;;;9.70;99.90;;;;;;4979278;28;20053;-78
2023/03/16 07:53:30;;;;;;;8.68;1.85;;;9.70;99.90;;;;;;4981864;28;20061;-80
2023/03/16 07:55:56;;;;;;;13.38;2.05;;;9.70;99.90;;;;;;4977483;28;20470;-78
2023/03/16 07:58:22;;;;;;;9.07;2.20;;;9.80;99.90;;;;;;4982434;28;20034;-78
2023/03/16 08:00:48;;;;;;;8.32;1.90;;;9.70;99.90;;;;;;4982389;28;20030;-79
2023/03/16 08:03:13;;;;;;;11.60;2.17;;;9.80;99.90;;;;;;4982418;28;20026;-78
2023/03/16 08:05:39;;;;;;;8.77;1.85;;;9.80;99.90;;;;;;4978572;28;20099;-79
2023/03/16 08:08:08;;;;;;;10.32;1.80;;;9.80;99.90;;;;;;4962757;28;20347;-78
2023/03/16 08:10:34;;;;;;;7.70;1.60;;;9.80;99.90;;;;;;4974375;28;20034;-78
2023/03/16 08:13:03;;;;;;;10.82;1.77;;;9.70;99.90;;;;;;4981390;28;20033;-79
2023/03/16 08:15:31;;;;;;;7.63;1.67;;;9.70;99.90;;;;;;4981526;28;20030;-79
2023/03/16 08:17:59;;;;;;;8.88;1.75;;;9.70;99.90;;;;;;4982794;28;20577;-78
2023/03/16 08:20:25;;;;;;;7.30;1.88;;;9.80;99.90;;;;;;4976829;28;20034;-78
2023/03/16 08:22:50;;;;;;;9.05;1.83;;;9.90;99.90;;;;;;4992328;28;20046;-78
2023/03/16 08:25:18;;;;;;;9.20;1.95;;;9.90;99.90;;;;;;4999433;28;20549;-79
2023/03/16 08:27:44;;;;;;;8.65;1.98;;;10.00;99.90;;;;;;4997654;28;20032;-77
2023/03/16 08:30:12;;;;;;;7.25;1.75;;;10.10;99.90;;;;;;4994400;28;20031;-79
2023/03/16 08:32:41;;;;;;;11.40;2.42;;;10.20;99.90;;;;;;4984235;28;20029;-78
2023/03/16 08:35:09;;;;;;;4.75;2.05;;;10.40;99.90;;;;;;4998251;28;20088;-78
2023/03/16 08:37:35;;;;;;;10.43;1.58;;;10.80;99.90;;;;;;4981200;28;20222;-78
2023/03/16 08:40:01;;;;;;;9.48;1.98;;;10.90;99.90;;;;;;5001596;28;20332;-79
2023/03/16 08:42:27;;;;;;;11.45;1.80;;;10.70;99.90;;;;;;4998439;28;20036;-79
2023/03/16 08:44:54;;;;;;;15.13;2.20;;;10.50;99.90;;;;;;4996049;28;20569;-79
2023/03/16 08:47:23;;;;;;;14.85;2.42;;;10.40;99.90;;;;;;4995251;28;20076;-79
2023/03/16 08:49:49;;;;;;;11.05;2.72;;;10.50;99.90;;;;;;4991711;28;20026;-78
2023/03/16 08:52:15;;;;;;;11.68;2.17;;;10.60;99.90;;;;;;4983595;28;20036;-78
2023/03/16 08:54:42;;;;;;;12.25;2.00;;;10.60;99.90;;;;;;4967036;28;20038;-79
2023/03/16 08:57:09;;;;;;;11.32;2.20;;;10.70;99.90;;;;;;4966151;28;20096;-78
2023/03/16 08:59:35;;;;;;;11.52;2.13;;;10.80;99.90;;;;;;4984180;28;20027;-79
2023/03/16 09:02:03;;;;;;;12.32;1.77;;;11.40;99.90;;;;;;4975014;28;20117;-79
2023/03/16 09:04:29;;;;;;;14.65;1.90;;;12.30;99.90;;;;;;5000204;28;20036;-78
2023/03/16 09:06:55;;;;;;;13.00;2.10;;;12.60;99.90;;;;;;4997461;23;20056;-73
2023/03/16 09:09:21;;;;;;;7.20;1.58;;;13.40;99.90;;;;;;4981360;28;20065;-74
2023/03/16 09:11:48;;;;;;;13.40;2.10;;;14.40;99.90;;;;;;4980485;28;20022;-74
2023/03/16 09:14:14;;;;;;;9.05;1.33;;;15.50;99.90;;;;;;4983915;28;20068;-72
2023/03/16 09:16:40;;;;;;;9.25;1.90;;;16.60;99.20;;;;;;4971720;28;20039;-74
2023/03/16 09:19:06;;;;;;;8.07;1.40;;;16.90;89.10;;;;;;4951125;28;20422;-74
2023/03/16 09:21:34;;;;;;;10.82;1.48;;;16.90;90.20;;;;;;4986562;28;20430;-74
2023/03/16 09:24:01;;;;;;;11.18;1.88;;;17.30;90.80;;;;;;4988114;28;20037;-75
2023/03/16 09:26:27;;;;;;;7.28;1.20;;;17.20;88.90;;;;;;4981268;28;20533;-74
2023/03/16 09:28:53;;;;;;;9.55;1.75;;;17.70;87.10;;;;;;4994625;28;20022;-74
2023/03/16 09:31:19;;;;;;;12.52;1.75;;;18.00;78.10;;;;;;4990271;28;20467;-74
2023/03/16 09:33:46;;;;;;;9.27;1.63;;;18.10;73.00;;;;;;4994033;28;20547;-74
2023/03/16 09:36:12;;;;;;;10.90;1.75;;;17.90;71.20;;;;;;4987910;28;20121;-73
2023/03/16 09:38:38;;;;;;;11.45;2.28;;;18.10;72.20;;;;;;4990463;28;20080;-73
2023/03/16 09:41:09;;;;;;;10.30;1.60;;;18.40;65.80;;;;;;4988760;28;20037;-74
2023/03/16 09:43:43;;;;;;;10.20;1.73;;;17.70;69.60;;;;;;4987302;28;20210;-73
2023/03/16 09:46:28;;;;;;;10.70;1.80;;;18.30;71.00;;;;;;4991006;28;20507;-73
2023/03/16 09:48:56;;;;;;;7.93;1.73;;;20.40;61.00;;;;;;4988826;28;20026;-74
2023/03/16 09:51:55;;;;;;;5.65;1.30;;;22.50;52.90;;;;;;4991857;28;20041;-73
2023/03/16 09:54:38;;;;;;;8.80;1.92;;;24.40;47.50;;;;;;4968997;28;20096;-73
2023/03/16 09:57:13;;;;;;;9.48;2.00;;;27.50;41.90;;;;;;4965894;28;20038;-74
2023/03/16 09:59:39;;;;;;;8.27;1.75;;;27.50;38.80;;;;;;4988664;28;20113;-74
2023/03/16 10:02:27;;;;;;;10.02;1.70;;;27.70;37.90;;;;;;4989425;28;20083;-74
2023/03/16 10:05:12;;;;;;;9.07;1.83;;;27.30;39.30;;;;;;4995414;28;20025;-73
2023/03/16 10:08:12;;;;;;;6.88;1.65;;;27.00;38.10;;;;;;4993287;28;20521;-73
2023/03/16 10:10:41;;;;;;;5.22;1.70;;;27.80;38.20;;;;;;4991146;28;20701;-73
2023/03/16 10:13:28;;;;;;;8.23;1.92;;;26.10;39.20;;;;;;4987997;28;20069;-74
2023/03/16 10:15:58;;;;;;;8.80;1.98;;;25.20;41.80;;;;;;4989247;28;20026;-76
2023/03/16 10:18:47;;;;;;;9.40;2.05;;;25.30;38.30;;;;;;4995751;28;20061;-74
2023/03/16 10:21:17;;;;;;;10.70;2.22;;;23.20;43.50;;;;;;4991803;28;20102;-74
2023/03/16 10:23:45;;;;;;;8.63;2.08;;;24.50;42.70;;;;;;4983165;28;20611;-74
2023/03/16 10:26:23;;;;;;;12.15;2.30;;;24.50;41.70;;;;;;4984308;28;20030;-74
2023/03/16 10:28:49;;;;;;;5.93;1.90;;;25.70;39.50;;;;;;4980667;28;20025;-73
2023/03/16 10:31:19;;;;;;;8.18;2.03;;;23.60;40.80;;;;;;4986096;28;20026;-74
2023/03/16 10:33:45;;;;;;;10.60;2.22;;;24.30;43.60;;;;;;4990970;28;20376;-74
2023/03/16 10:36:34;;;;;;;12.43;2.20;;;24.60;40.20;;;;;;4989761;28;20469;-74
2023/03/16 10:39:06;;;;;;;7.60;2.15;;;25.60;39.40;;;;;;4983109;28;20038;-74
2023/03/16 10:41:31;;;;;;;10.65;2.17;;;25.60;40.40;;;;;;4991561;28;20116;-74
2023/03/16 10:44:11;;;;;;;8.65;1.80;;;24.70;37.30;;;;;;4646347;28;10001255;-73
2023/03/16 10:46:47;;;;;;;5.65;1.95;;;24.40;41.80;;;;;;4981172;28;20050;-74
2023/03/16 10:49:34;;;;;;;10.60;2.20;;;24.10;41.00;;;;;;4988121;28;20026;-74
2023/03/16 10:52:24;;;;;;;7.55;1.90;;;24.30;40.20;;;;;;4995551;28;20040;-73
2023/03/16 10:54:59;;;;;;;8.52;2.20;;;24.80;42.10;;;;;;4968699;28;20046;-75
2023/03/16 10:57:32;;;;;;;7.72;1.80;;;24.50;42.10;;;;;;4995886;28;20102;-74
2023/03/16 11:00:15;;;;;;;10.13;1.90;;;24.50;39.70;;;;;;4992375;28;20022;-74
2023/03/16 11:02:41;;;;;;;7.95;2.38;;;23.00;42.70;;;;;;4976836;28;20390;-74
2023/03/16 11:05:17;;;;;;;10.68;2.15;;;22.70;45.60;;;;;;4991525;28;20089;-73
2023/03/16 11:08:09;;;;;;;7.70;2.10;;;22.00;48.00;;;;;;4986728;28;20041;-73
2023/03/16 11:10:41;;;;;;;10.05;2.30;;;21.60;47.30;;;;;;4980722;28;20026;-73
2023/03/16 11:13:19;;;;;;;9.07;2.28;;;21.30;47.20;;;;;;4993006;28;20111;-75
2023/03/16 11:15:56;;;;;;;10.57;2.00;;;20.80;49.00;;;;;;4987162;28;20022;-74
2023/03/16 11:18:41;;;;;;;8.90;2.28;;;20.00;51.00;;;;;;4975332;28;20095;-74
2023/03/16 11:21:21;;;;;;;11.02;2.35;;;19.10;53.70;;;;;;4990497;28;20022;-73
2023/03/16 11:23:50;;;;;;;10.23;2.17;;;19.50;54.80;;;;;;4973183;28;20044;-73
2023/03/16 11:26:38;;;;;;;7.53;1.75;;;20.10;51.50;;;;;;4990193;28;20029;-73
2023/03/16 11:29:19;;;;;;;9.20;2.40;;;20.00;51.30;;;;;;4982737;28;20116;-73
2023/03/16 11:32:08;;;;;;;10.77;2.22;;;19.50;52.80;;;;;;4971950;28;20042;-73
2023/03/16 11:34:35;;;;;;;10.18;2.70;;;18.60;56.30;;;;;;4978538;28;20030;-72
2023/03/16 11:37:07;;;;;;;11.63;2.50;;;17.80;60.50;;;;;;4981224;28;20044;-73
2023/03/16 11:39:40;;;;;;;7.07;1.92;;;17.50;67.30;;;;;;4983749;28;20274;-72
2023/03/16 11:42:25;;;;;;;10.27;2.22;;;17.00;66.50;;;;;;4986299;28;20563;-73
2023/03/16 11:45:14;;;;;;;11.13;2.45;;;16.80;71.00;;;;;;4983182;28;20041;-72
2023/03/16 11:47:45;;;;;;;8.30;2.20;;;17.00;74.70;;;;;;4983377;28;20036;-72
2023/03/16 11:50:46;;;;;;;10.18;2.60;;;17.00;74.50;;;;;;4996370;28;20034;-74
2023/03/16 11:53:24;;;;;;;8.98;2.30;;;17.00;75.40;;;;;;4970723;28;20034;-73
2023/03/16 11:56:01;;;;;;;10.70;2.47;;;16.70;71.80;;;;;;4994488;28;20510;-73
2023/03/16 11:58:36;;;;;;;10.43;2.15;;;16.40;78.80;;;;;;4975173;28;20041;-73
2023/03/16 12:01:33;;;;;;;5.78;2.40;;;16.30;76.30;;;;;;4989056;28;20103;-72
2023/03/16 12:04:35;;;;;;;9.50;2.38;;;16.00;76.20;;;;;;4987379;28;20305;-73
2023/03/16 12:07:04;;;;;;;12.32;2.28;;;15.00;81.00;;;;;;4978560;28;20053;-72
2023/03/16 12:09:50;;;;;;;6.80;2.10;;;14.50;91.10;;;;;;4967828;28;20034;-73
2023/03/16 12:12:33;;;;;;;10.48;2.40;;;14.30;95.00;;;;;;4966916;28;20442;-74
2023/03/16 12:15:29;;;;;;;8.00;1.58;;;14.40;92.20;;;;;;4968317;28;20066;-73
2023/03/16 12:18:24;;;;;;;9.98;2.03;;;14.50;95.30;;;;;;4973854;28;20478;-73
2023/03/16 12:21:08;;;;;;;9.80;2.08;;;14.70;94.30;;;;;;4967473;28;20438;-73
2023/03/16 12:23:54;;;;;;;9.77;1.70;;;14.90;92.10;;;;;;4971530;28;20038;-73
2023/03/16 12:26:23;;;;;;;5.25;1.77;;;14.80;90.80;;;;;;4970999;28;20022;-73
2023/03/16 12:28:53;;;;;;;8.40;1.80;;;15.10;91.00;;;;;;4971238;28;20402;-71
2023/03/16 12:31:20;;;;;;;6.47;1.67;;;15.20;87.90;;;;;;4974138;28;20397;-72
2023/03/16 12:34:05;;;;;;;7.22;1.63;;;15.10;84.60;;;;;;4967609;28;20628;-75
2023/03/16 12:36:37;;;;;;;6.85;1.73;;;15.00;90.70;;;;;;4967944;28;20038;-72
2023/03/16 12:39:10;;;;;;;6.85;1.70;;;14.70;89.20;;;;;;4958341;28;20166;-74
2023/03/16 12:41:58;;;;;;;4.80;1.25;;;14.40;92.70;;;;;;4975178;28;20153;-73
2023/03/16 12:44:42;;;;;;;7.55;1.60;;;14.40;93.20;;;;;;4965007;28;21599;-74
2023/03/16 12:47:11;;;;;;;6.68;1.95;;;14.20;94.80;;;;;;4973627;28;20383;-74
2023/03/16 12:49:38;;;;;;;8.38;1.90;;;14.20;94.80;;;;;;4965853;28;20482;-72
2023/03/16 12:52:10;;;;;;;9.95;2.15;;;14.30;93.40;;;;;;4976528;28;20041;-72
2023/03/16 12:54:35;;;;;;;5.72;2.15;;;14.40;86.80;;;;;;4960163;28;20395;-72
2023/03/16 12:57:07;;;;;;;6.72;1.75;;;14.60;95.30;;;;;;4971289;28;20049;-73